Weather at Triple H Heliport

Public forecast

Using degrees Fahrenheit for public forecast. Weather courtesy of forecast.io.

Closest aviation weather report (METAR) to Triple H Heliport

Closest report is Buffalo Municipal Airport, 10.7 nm (19.8 km) SSW.

2024/07/25 10:15 (retrieved 16 minutes ago)

KCFE 251015Z AUTO 00000KT 8SM BKN038 OVC060 13/13 A3022 RMK AO2

Closest aviation forecast (TAF) to Triple H Heliport

Closest forecast is Saint Cloud Regional Airport, 20.1 nm (37.2 km) NW.

2024/07/25 06:22 (retrieved 4 hours ago)

TAF KSTC 250520Z 2506/2606 11003KT P6SM FEW200 FM251400 15008KT P6SM SKC FM260000 14005KT P6SM SKC